Time;durP1;ratioP1;P1;durP2;ratioP2;P2;SDS_P1;SDS_P2;PMS_P1;PMS_P2;Temp;Humidity;BMP_temperature;BMP_pressure;BME280_temperature;BME280_humidity;BME280_pressure;Samples;Min_cycle;Max_cycle;Signal;HPM_P1;HPM_P2
2024/01/27 00:01:43;;;;;;;0.10;0.10;;;;;;;;;;4993123;28;20053;-88
2024/01/27 00:04:09;;;;;;;0.08;0.08;;;;;;;;;;4993848;28;20481;-87
2024/01/27 00:06:35;;;;;;;0.00;0.00;;;;;;;;;;4993053;28;20037;-88
2024/01/27 00:09:00;;;;;;;0.10;0.10;;;;;;;;;;4993855;28;20018;-90
2024/01/27 00:11:26;;;;;;;0.10;0.10;;;;;;;;;;4989762;28;20030;-89
2024/01/27 00:13:52;;;;;;;0.10;0.10;;;;;;;;;;4993120;28;21929;-88
2024/01/27 00:16:18;;;;;;;0.10;0.10;;;;;;;;;;4994201;28;20478;-89
2024/01/27 00:18:44;;;;;;;0.10;0.10;;;;;;;;;;4991509;28;20030;-90
2024/01/27 00:21:10;;;;;;;0.00;0.00;;;;;;;;;;4992321;28;20018;-90
2024/01/27 00:23:36;;;;;;;0.10;0.10;;;;;;;;;;4999011;28;20030;-90
2024/01/27 00:26:02;;;;;;;0.10;0.10;;;;;;;;;;4992179;28;20223;-90
2024/01/27 00:28:28;;;;;;;0.10;0.10;;;;;;;;;;4989222;28;20129;-89
2024/01/27 00:30:54;;;;;;;0.10;0.10;;;;;;;;;;4984801;28;20046;-89
2024/01/27 00:33:20;;;;;;;0.10;0.10;;;;;;;;;;4992518;28;20026;-90
2024/01/27 00:35:46;;;;;;;0.10;0.10;;;;;;;;;;4994279;28;20145;-89
2024/01/27 00:38:12;;;;;;;0.10;0.10;;;;;;;;;;4992443;28;20054;-90
2024/01/27 00:40:38;;;;;;;0.10;0.10;;;;;;;;;;4991651;28;20030;-90
2024/01/27 00:43:04;;;;;;;0.10;0.10;;;;;;;;;;4996982;28;20482;-90
2024/01/27 00:45:30;;;;;;;0.10;0.10;;;;;;;;;;4990366;28;20125;-90
2024/01/27 00:47:56;;;;;;;0.10;0.10;;;4.20;99.90;;;;;;4993346;28;20076;-90
2024/01/27 00:50:22;;;;;;;0.10;0.10;;;;;;;;;;4996708;28;20045;-89
2024/01/27 00:52:48;;;;;;;0.10;0.10;;;;;;;;;;4990901;28;20098;-90
2024/01/27 00:55:14;;;;;;;0.00;0.00;;;;;;;;;;5009142;28;20511;-89
2024/01/27 00:57:40;;;;;;;0.10;0.10;;;;;;;;;;4992753;28;20165;-90
2024/01/27 01:00:07;;;;;;;0.05;0.05;;;4.10;99.90;;;;;;4993108;28;20034;-88
2024/01/27 01:02:33;;;;;;;0.10;0.10;;;;;;;;;;4992513;28;20488;-89
2024/01/27 01:04:59;;;;;;;0.10;0.10;;;;;;;;;;4993375;28;20120;-90
2024/01/27 01:07:25;;;;;;;0.10;0.10;;;;;;;;;;4989392;28;20026;-89
2024/01/27 01:09:50;;;;;;;0.10;0.10;;;4.00;99.90;;;;;;4991081;28;20034;-90
2024/01/27 01:12:16;;;;;;;0.10;0.10;;;;;;;;;;4991767;28;20029;-91
2024/01/27 01:14:43;;;;;;;0.10;0.10;;;4.00;99.90;;;;;;4992610;28;20579;-90
2024/01/27 01:17:09;;;;;;;0.10;0.10;;;;;;;;;;4992772;28;20409;-88
2024/01/27 01:19:36;;;;;;;0.10;0.10;;;4.00;99.90;;;;;;4992045;28;20033;-90
2024/01/27 01:22:02;;;;;;;0.10;0.10;;;;;;;;;;4990021;28;20037;-90
2024/01/27 01:24:28;;;;;;;0.10;0.10;;;;;;;;;;4990514;28;20272;-90
2024/01/27 01:26:54;;;;;;;0.10;0.10;;;;;;;;;;4991711;28;20053;-89
2024/01/27 01:29:20;;;;;;;0.10;0.10;;;;;;;;;;4988765;28;20413;-89
2024/01/27 01:31:46;;;;;;;0.10;0.10;;;;;;;;;;4990023;28;20030;-90
2024/01/27 01:34:12;;;;;;;0.10;0.10;;;;;;;;;;4996137;28;20027;-90
2024/01/27 01:36:38;;;;;;;0.10;0.10;;;;;;;;;;5009415;28;20030;-88
2024/01/27 01:39:04;;;;;;;0.10;0.10;;;;;;;;;;4993428;28;20080;-90
2024/01/27 01:41:30;;;;;;;0.10;0.10;;;;;;;;;;4991047;28;20026;-89
2024/01/27 01:43:56;;;;;;;0.10;0.10;;;;;;;;;;4991449;28;20034;-90
2024/01/27 01:46:23;;;;;;;0.10;0.10;;;3.70;99.90;;;;;;4991162;28;20080;-90
2024/01/27 01:48:49;;;;;;;0.10;0.10;;;;;;;;;;4992324;28;20113;-90
2024/01/27 01:51:19;;;;;;;0.10;0.10;;;3.70;99.90;;;;;;4989400;28;20499;-90
2024/01/27 01:53:48;;;;;;;0.10;0.10;;;3.70;99.90;;;;;;4987583;28;20382;-90
2024/01/27 01:56:15;;;;;;;0.10;0.10;;;;;;;;;;4993054;28;20034;-90
2024/01/27 01:58:41;;;;;;;0.10;0.10;;;;;;;;;;4993418;28;20474;-89
2024/01/27 02:01:06;;;;;;;0.08;0.08;;;;;;;;;;4993274;28;20022;-90
2024/01/27 02:03:32;;;;;;;0.10;0.10;;;;;;;;;;4994262;28;20497;-89
2024/01/27 02:05:58;;;;;;;0.03;0.03;;;;;;;;;;4991103;28;20449;-91
2024/01/27 02:08:24;;;;;;;0.10;0.10;;;;;;;;;;4992048;28;20085;-90
2024/01/27 02:10:50;;;;;;;0.10;0.10;;;;;;;;;;4986985;28;20056;-88
2024/01/27 02:13:20;;;;;;;0.10;0.10;;;;;;;;;;4989738;28;20085;-90
2024/01/27 02:15:46;;;;;;;0.10;0.10;;;;;;;;;;4986787;28;20026;-89
2024/01/27 02:18:12;;;;;;;0.10;0.10;;;;;;;;;;4989654;28;20113;-90
2024/01/27 02:20:38;;;;;;;0.00;0.00;;;;;;;;;;4991767;28;20129;-88
2024/01/27 02:23:04;;;;;;;0.10;0.10;;;3.70;99.90;;;;;;4990186;28;20062;-90
2024/01/27 02:25:31;;;;;;;0.10;0.10;;;;;;;;;;4985112;28;20035;-89
2024/01/27 02:27:57;;;;;;;0.10;0.10;;;;;;;;;;4989330;28;20493;-89
2024/01/27 02:30:23;;;;;;;0.10;0.10;;;;;;;;;;4987209;28;20038;-89
2024/01/27 02:32:48;;;;;;;0.00;0.00;;;;;;;;;;4990314;28;20069;-90
2024/01/27 02:35:15;;;;;;;0.10;0.10;;;;;;;;;;4992046;28;20034;-87
2024/01/27 02:37:41;;;;;;;0.10;0.10;;;;;;;;;;4987437;28;20030;-88
2024/01/27 02:40:08;;;;;;;0.10;0.10;;;3.50;99.90;;;;;;4989535;28;20058;-90
2024/01/27 02:42:34;;;;;;;0.10;0.10;;;;;;;;;;4989999;28;20038;-89
2024/01/27 02:45:00;;;;;;;0.10;0.10;;;;;;;;;;4990624;28;20030;-90
2024/01/27 02:47:25;;;;;;;0.05;0.05;;;;;;;;;;4994788;28;20033;-89
2024/01/27 02:49:51;;;;;;;0.10;0.10;;;;;;;;;;4989956;28;20034;-90
2024/01/27 02:52:17;;;;;;;0.10;0.10;;;3.40;99.90;;;;;;4989811;28;20030;-90
2024/01/27 02:54:43;;;;;;;0.10;0.10;;;;;;;;;;4990228;28;20042;-88
2024/01/27 02:57:09;;;;;;;0.10;0.10;;;;;;;;;;4994639;28;20073;-91
2024/01/27 02:59:35;;;;;;;0.00;0.00;;;;;;;;;;4987591;28;20057;-89
2024/01/27 03:02:01;;;;;;;0.10;0.10;;;;;;;;;;4987688;28;20033;-89
2024/01/27 03:04:27;;;;;;;0.10;0.10;;;;;;;;;;4992655;28;20492;-90
2024/01/27 03:06:53;;;;;;;0.00;0.00;;;;;;;;;;4991328;28;20049;-89
2024/01/27 03:09:19;;;;;;;0.10;0.10;;;;;;;;;;4990551;28;20037;-89
2024/01/27 03:11:45;;;;;;;0.10;0.10;;;;;;;;;;5001297;28;20049;-89
2024/01/27 03:14:11;;;;;;;0.00;0.00;;;;;;;;;;4986588;28;20425;-89
2024/01/27 03:16:37;;;;;;;0.00;0.00;;;;;;;;;;4991720;28;20033;-89
2024/01/27 03:19:03;;;;;;;0.10;0.10;;;;;;;;;;4989787;28;20062;-89
2024/01/27 03:21:29;;;;;;;0.00;0.00;;;3.50;99.90;;;;;;4990685;28;20026;-89
2024/01/27 03:26:29;;;;;;;0.10;0.10;;;;;;;;;;4970847;28;20058;-91
2024/01/27 03:28:55;;;;;;;0.05;0.05;;;;;;;;;;4971983;28;20075;-89
2024/01/27 03:31:21;;;;;;;0.03;0.03;;;;;;;;;;4969452;28;20054;-89
2024/01/27 03:33:47;;;;;;;0.00;0.00;;;;;;;;;;4972411;28;20034;-90
2024/01/27 03:36:13;;;;;;;0.10;0.10;;;3.20;99.90;;;;;;4964770;28;20510;-90
2024/01/27 03:38:39;;;;;;;0.10;0.10;;;;;;;;;;4963906;28;20058;-90
2024/01/27 03:41:05;;;;;;;0.10;0.10;;;;;;;;;;4961143;28;20037;-91
2024/01/27 03:43:31;;;;;;;0.05;0.05;;;;;;;;;;4968659;28;20130;-91
2024/01/27 03:45:57;;;;;;;0.00;0.00;;;;;;;;;;4962851;28;20634;-89
2024/01/27 03:48:23;;;;;;;0.00;0.00;;;;;;;;;;4961914;28;20034;-90
2024/01/27 03:50:49;;;;;;;0.10;0.10;;;;;;;;;;4969204;28;20043;-91
2024/01/27 03:53:15;;;;;;;0.10;0.10;;;;;;;;;;4968137;28;20031;-90
2024/01/27 03:55:41;;;;;;;0.10;0.10;;;;;;;;;;4961182;28;20026;-89
2024/01/27 03:58:07;;;;;;;0.10;0.10;;;;;;;;;;4969324;28;20027;-90
2024/01/27 04:00:33;;;;;;;0.10;0.10;;;;;;;;;;4969509;28;20109;-89
2024/01/27 04:02:59;;;;;;;0.00;0.00;;;;;;;;;;4966578;28;20051;-91
2024/01/27 04:05:25;;;;;;;0.00;0.00;;;;;;;;;;4955759;28;20031;-91
2024/01/27 04:07:51;;;;;;;0.10;0.10;;;;;;;;;;4961322;28;20047;-90
2024/01/27 04:10:18;;;;;;;0.00;0.00;;;3.20;99.90;;;;;;4960447;28;20027;-92
2024/01/27 04:12:44;;;;;;;0.03;0.03;;;;;;;;;;4965318;28;20038;-91
2024/01/27 04:15:10;;;;;;;0.10;0.10;;;3.10;99.90;;;;;;4972062;28;20031;-91
2024/01/27 04:17:37;;;;;;;0.10;0.10;;;3.30;99.90;;;;;;4971813;28;20028;-91
2024/01/27 04:20:04;;;;;;;0.10;0.10;;;;;;;;;;4963125;28;20028;-92
2024/01/27 04:22:30;;;;;;;0.10;0.10;;;;;;;;;;4965786;28;20043;-91
2024/01/27 04:24:56;;;;;;;0.10;0.10;;;;;;;;;;4960743;28;20145;-90
2024/01/27 04:27:22;;;;;;;0.00;0.00;;;;;;;;;;4959877;28;20035;-90
2024/01/27 04:29:48;;;;;;;0.10;0.10;;;;;;;;;;4967192;28;20493;-90
2024/01/27 04:32:14;;;;;;;0.10;0.10;;;;;;;;;;4966624;28;20478;-90
2024/01/27 04:34:40;;;;;;;0.10;0.10;;;;;;;;;;4969978;28;20077;-91
2024/01/27 04:37:06;;;;;;;0.10;0.10;;;;;;;;;;4967529;28;20023;-90
2024/01/27 04:39:32;;;;;;;0.10;0.10;;;;;;;;;;4970718;28;20114;-92
2024/01/27 04:41:58;;;;;;;0.03;0.03;;;;;;;;;;4974833;28;20082;-89
2024/01/27 04:44:24;;;;;;;0.10;0.10;;;;;;;;;;4971331;28;20031;-92
2024/01/27 04:46:50;;;;;;;0.10;0.10;;;;;;;;;;4974761;28;20410;-91
2024/01/27 04:49:16;;;;;;;0.10;0.10;;;;;;;;;;4968401;28;20162;-91
2024/01/27 04:51:42;;;;;;;0.10;0.10;;;;;;;;;;4967470;28;20035;-89
2024/01/27 04:54:09;;;;;;;0.00;0.00;;;;;;;;;;4969171;28;20178;-90
2024/01/27 04:56:34;;;;;;;0.10;0.10;;;;;;;;;;4964117;28;20046;-91
2024/01/27 04:59:00;;;;;;;0.10;0.10;;;;;;;;;;4973007;28;20035;-91
2024/01/27 05:01:26;;;;;;;0.10;0.10;;;;;;;;;;4963484;28;20027;-89
2024/01/27 05:03:52;;;;;;;0.10;0.10;;;;;;;;;;4970443;28;20109;-91
2024/01/27 05:06:19;;;;;;;0.10;0.10;;;;;;;;;;4967867;28;20039;-90
2024/01/27 05:08:45;;;;;;;0.00;0.00;;;;;;;;;;4973399;28;20031;-91
2024/01/27 05:11:11;;;;;;;0.00;0.00;;;;;;;;;;4965975;28;20031;-91
2024/01/27 05:13:37;;;;;;;0.10;0.10;;;;;;;;;;4972703;28;20031;-90
2024/01/27 05:16:03;;;;;;;0.10;0.10;;;;;;;;;;4970995;28;20027;-91
2024/01/27 05:18:29;;;;;;;0.00;0.00;;;;;;;;;;4964362;28;20394;-90
2024/01/27 05:20:55;;;;;;;0.10;0.10;;;;;;;;;;4966139;28;20027;-91
2024/01/27 05:23:21;;;;;;;0.03;0.03;;;;;;;;;;4966406;28;20368;-90
2024/01/27 05:25:47;;;;;;;0.10;0.10;;;;;;;;;;4964990;28;20030;-88
2024/01/27 05:28:13;;;;;;;0.10;0.10;;;;;;;;;;4963784;28;20082;-90
2024/01/27 05:30:39;;;;;;;0.10;0.10;;;;;;;;;;4965704;28;20045;-90
2024/01/27 05:33:05;;;;;;;0.05;0.05;;;;;;;;;;4968395;28;20106;-90
2024/01/27 05:35:31;;;;;;;0.05;0.05;;;;;;;;;;4982786;28;20142;-91
2024/01/27 05:37:57;;;;;;;0.10;0.10;;;;;;;;;;4972711;28;20066;-90
2024/01/27 05:40:23;;;;;;;0.10;0.10;;;;;;;;;;4960693;28;20058;-90
2024/01/27 05:42:50;;;;;;;0.10;0.10;;;;;;;;;;4969689;28;20457;-91
2024/01/27 05:45:16;;;;;;;0.10;0.10;;;;;;;;;;4966388;28;20031;-90
2024/01/27 05:47:42;;;;;;;0.05;0.05;;;;;;;;;;4964695;28;20070;-90
2024/01/27 05:50:08;;;;;;;0.10;0.10;;;;;;;;;;4963163;28;20058;-91
2024/01/27 05:52:34;;;;;;;0.00;0.00;;;2.60;99.90;;;;;;4966398;28;20030;-90
2024/01/27 05:55:00;;;;;;;0.05;0.05;;;;;;;;;;4992335;28;20048;-91
2024/01/27 05:57:26;;;;;;;0.10;0.10;;;;;;;;;;4961167;28;20030;-91
2024/01/27 05:59:52;;;;;;;0.10;0.10;;;;;;;;;;4965049;28;20090;-90
2024/01/27 06:02:18;;;;;;;0.10;0.10;;;;;;;;;;4967077;28;20038;-90
2024/01/27 06:04:44;;;;;;;0.00;0.00;;;;;;;;;;4968101;28;20089;-91
2024/01/27 06:07:10;;;;;;;0.10;0.10;;;;;;;;;;4967778;28;20030;-91
2024/01/27 06:09:38;;;;;;;0.10;0.10;;;2.40;99.90;;;;;;4963683;28;20067;-90
2024/01/27 06:12:04;;;;;;;0.10;0.10;;;;;;;;;;4960409;28;20413;-90
2024/01/27 06:14:30;;;;;;;0.10;0.10;;;;;;;;;;4968128;28;20034;-90
2024/01/27 06:16:57;;;;;;;0.10;0.10;;;;;;;;;;4971979;28;20042;-92
2024/01/27 06:19:22;;;;;;;0.00;0.00;;;;;;;;;;4966091;28;20027;-90
2024/01/27 06:21:48;;;;;;;0.10;0.10;;;;;;;;;;4966544;28;20570;-91
2024/01/27 06:24:15;;;;;;;0.10;0.10;;;;;;;;;;4961986;28;20034;-90
2024/01/27 06:26:41;;;;;;;0.00;0.00;;;;;;;;;;4969460;28;20065;-91
2024/01/27 06:29:06;;;;;;;0.10;0.10;;;2.40;99.90;;;;;;4974471;28;20063;-90
2024/01/27 06:31:32;;;;;;;0.00;0.00;;;;;;;;;;4977849;28;20556;-91
2024/01/27 06:33:58;;;;;;;0.00;0.00;;;;;;;;;;4967760;28;20038;-90
2024/01/27 06:36:25;;;;;;;0.00;0.00;;;;;;;;;;4964045;28;20038;-92
2024/01/27 06:38:51;;;;;;;0.10;0.10;;;;;;;;;;4969728;28;20041;-90
2024/01/27 06:41:17;;;;;;;0.10;0.10;;;;;;;;;;4973458;28;20030;-90
2024/01/27 06:43:43;;;;;;;0.10;0.10;;;;;;;;;;4967540;28;20034;-90
2024/01/27 06:46:09;;;;;;;0.10;0.10;;;;;;;;;;4968745;28;20469;-91
2024/01/27 06:48:35;;;;;;;0.10;0.10;;;;;;;;;;4971387;28;20083;-91
2024/01/27 06:51:01;;;;;;;0.10;0.10;;;;;;;;;;4966131;28;20031;-92
2024/01/27 06:53:27;;;;;;;0.00;0.00;;;;;;;;;;4967068;28;20038;-91
2024/01/27 06:55:53;;;;;;;0.10;0.10;;;;;;;;;;4962963;28;20031;-90
2024/01/27 06:58:19;;;;;;;0.10;0.10;;;;;;;;;;4976282;28;20027;-91
2024/01/27 07:00:45;;;;;;;0.08;0.08;;;;;;;;;;4972494;28;20026;-90
2024/01/27 07:03:11;;;;;;;0.10;0.10;;;;;;;;;;4966961;28;20026;-92
2024/01/27 07:05:40;;;;;;;0.10;0.10;;;;;;;;;;4983519;28;20057;-92
2024/01/27 07:08:09;;;;;;;0.10;0.10;;;;;;;;;;4973177;28;20781;-91
2024/01/27 07:10:35;;;;;;;0.10;0.10;;;;;;;;;;4971984;28;20030;-92
2024/01/27 07:13:01;;;;;;;0.00;0.00;;;;;;;;;;4980799;28;20353;-91
2024/01/27 07:15:27;;;;;;;0.10;0.10;;;;;;;;;;4967268;28;20062;-91
2024/01/27 07:17:54;;;;;;;0.00;0.00;;;;;;;;;;4977594;28;20096;-93
2024/01/27 07:20:20;;;;;;;0.05;0.05;;;;;;;;;;4966255;28;20514;-90
2024/01/27 07:22:47;;;;;;;0.10;0.10;;;2.70;99.90;;;;;;4970610;28;20037;-92
2024/01/27 07:25:13;;;;;;;0.05;0.05;;;;;;;;;;4965635;28;20178;-92
2024/01/27 07:27:39;;;;;;;0.08;0.08;;;;;;;;;;4976771;28;20058;-91
2024/01/27 07:30:06;;;;;;;0.10;0.10;;;;;;;;;;4975937;28;20036;-91
2024/01/27 07:32:32;;;;;;;0.00;0.00;;;;;;;;;;4974164;28;20660;-92
2024/01/27 07:34:58;;;;;;;0.10;0.10;;;;;;;;;;4967586;28;20039;-91
2024/01/27 07:37:24;;;;;;;0.10;0.10;;;;;;;;;;4980585;28;20066;-91
2024/01/27 07:39:50;;;;;;;0.10;0.10;;;;;;;;;;4961705;28;20055;-91
2024/01/27 07:42:16;;;;;;;0.10;0.10;;;;;;;;;;4965454;28;20058;-92
2024/01/27 07:44:42;;;;;;;0.00;0.00;;;;;;;;;;4965637;28;20027;-91
2024/01/27 07:47:08;;;;;;;0.10;0.10;;;;;;;;;;4969601;28;20035;-92
2024/01/27 07:49:34;;;;;;;0.10;0.10;;;;;;;;;;4964208;28;20656;-92
2024/01/27 07:52:00;;;;;;;0.10;0.10;;;;;;;;;;4971830;28;20031;-91
2024/01/27 07:54:26;;;;;;;0.10;0.10;;;;;;;;;;4969155;28;20038;-91
2024/01/27 07:56:52;;;;;;;0.00;0.00;;;;;;;;;;4962353;28;20375;-91
2024/01/27 07:59:18;;;;;;;0.10;0.10;;;;;;;;;;4966942;28;20039;-91
2024/01/27 08:01:44;;;;;;;0.10;0.10;;;;;;;;;;4970537;28;20039;-91
2024/01/27 08:04:10;;;;;;;0.10;0.10;;;;;;;;;;4968179;28;20034;-91
2024/01/27 08:06:47;;;;;;;0.10;0.10;;;2.70;99.90;;;;;;4970679;28;20426;-93
2024/01/27 08:09:13;;;;;;;0.10;0.10;;;;;;;;;;4975004;28;20437;-92
2024/01/27 08:11:39;;;;;;;0.10;0.10;;;;;;;;;;4963512;28;20090;-90
2024/01/27 08:14:04;;;;;;;0.10;0.10;;;;;;;;;;4966048;28;20557;-91
2024/01/27 08:16:30;;;;;;;0.10;0.10;;;;;;;;;;4967032;28;20087;-90
2024/01/27 08:18:56;;;;;;;0.10;0.10;;;;;;;;;;4971534;28;20034;-91
2024/01/27 08:21:22;;;;;;;0.10;0.10;;;;;;;;;;4966898;28;20058;-92
2024/01/27 08:23:49;;;;;;;0.10;0.10;;;;;;;;;;4970572;28;20034;-90
2024/01/27 08:26:15;;;;;;;0.10;0.10;;;;;;;;;;4974923;28;20034;-91
2024/01/27 08:28:41;;;;;;;0.10;0.10;;;;;;;;;;4973101;28;20066;-91
2024/01/27 08:31:07;;;;;;;0.10;0.10;;;;;;;;;;4970734;28;20034;-92
2024/01/27 08:33:33;;;;;;;0.00;0.00;;;;;;;;;;4973280;28;20034;-91
2024/01/27 08:35:59;;;;;;;0.03;0.03;;;;;;;;;;4968452;28;20034;-89
2024/01/27 08:38:25;;;;;;;0.10;0.10;;;;;;;;;;4964642;28;20031;-91
2024/01/27 08:40:51;;;;;;;0.10;0.10;;;;;;;;;;4974249;28;20082;-89
2024/01/27 08:43:17;;;;;;;0.10;0.10;;;;;;;;;;4966218;28;20054;-90
2024/01/27 08:45:43;;;;;;;0.00;0.00;;;;;;;;;;4968126;28;20027;-90
2024/01/27 08:48:11;;;;;;;0.10;0.10;;;;;;;;;;4973572;28;20062;-91
2024/01/27 08:50:37;;;;;;;0.10;0.10;;;;;;;;;;4975027;28;20030;-91
2024/01/27 08:53:03;;;;;;;0.08;0.08;;;;;;;;;;4967592;28;20034;-91
2024/01/27 08:55:29;;;;;;;0.10;0.10;;;;;;;;;;4972087;28;20027;-91
2024/01/27 08:57:56;;;;;;;0.10;0.10;;;3.40;99.90;;;;;;4967320;28;20042;-91
2024/01/27 09:00:22;;;;;;;0.00;0.00;;;;;;;;;;4989300;28;20037;-90
2024/01/27 09:02:48;;;;;;;0.10;0.10;;;;;;;;;;4968965;28;20031;-92
2024/01/27 09:05:14;;;;;;;0.10;0.10;;;;;;;;;;4970703;28;20027;-90
2024/01/27 09:07:40;;;;;;;0.10;0.10;;;;;;;;;;4967455;28;20027;-92
2024/01/27 09:10:06;;;;;;;0.10;0.10;;;;;;;;;;4965138;28;20394;-93
2024/01/27 09:12:32;;;;;;;0.10;0.10;;;;;;;;;;4971213;28;20035;-91
2024/01/27 09:14:58;;;;;;;0.10;0.10;;;;;;;;;;4966173;28;20035;-90
2024/01/27 09:17:25;;;;;;;0.08;0.08;;;;;;;;;;4972466;28;20114;-87
2024/01/27 09:19:51;;;;;;;0.10;0.10;;;;;;;;;;4966561;28;20035;-86
2024/01/27 09:22:17;;;;;;;0.10;0.10;;;;;;;;;;4967134;28;20030;-89
2024/01/27 09:27:13;;;;;;;0.10;0.10;;;;;;;;;;4996873;28;20116;-85
2024/01/27 09:29:38;;;;;;;0.03;0.03;;;3.90;99.90;;;;;;4993743;28;20030;-85
2024/01/27 09:32:04;;;;;;;0.10;0.10;;;4.10;99.90;;;;;;4992244;28;20030;-85
2024/01/27 09:34:30;;;;;;;0.10;0.10;;;4.10;99.90;;;;;;4997818;28;20038;-88
2024/01/27 09:36:56;;;;;;;0.10;0.10;;;;;;;;;;4988937;28;20042;-85
2024/01/27 09:39:22;;;;;;;0.10;0.10;;;;;;;;;;4991160;28;20034;-85
2024/01/27 09:41:49;;;;;;;0.10;0.10;;;;;;;;;;4995266;28;20450;-86
2024/01/27 09:44:19;;;;;;;0.08;0.08;;;4.20;99.90;;;;;;4995558;28;20073;-87
2024/01/27 09:46:45;;;;;;;0.10;0.10;;;;;;;;;;4993324;28;20030;-85
2024/01/27 09:49:13;;;;;;;0.08;0.08;;;;;;;;;;4992069;28;20097;-87
2024/01/27 09:51:38;;;;;;;0.00;0.00;;;;;;;;;;4987292;28;20584;-86
2024/01/27 09:54:04;;;;;;;0.10;0.10;;;;;;;;;;4994373;28;20030;-86
2024/01/27 09:56:31;;;;;;;0.05;0.05;;;4.40;99.90;;;;;;4992612;28;20465;-86
2024/01/27 09:58:57;;;;;;;0.00;0.00;;;;;;;;;;4994907;28;20030;-87
2024/01/27 10:01:25;;;;;;;0.10;0.10;;;4.40;99.90;;;;;;4982728;28;20492;-87
2024/01/27 10:03:51;;;;;;;0.10;0.10;;;4.40;99.90;;;;;;4990822;28;20041;-86
2024/01/27 10:06:17;;;;;;;0.03;0.03;;;;;;;;;;4989622;28;20042;-86
2024/01/27 10:08:53;;;;;;;0.05;0.05;;;4.50;99.90;;;;;;4987624;28;20043;-86
2024/01/27 10:11:21;;;;;;;0.10;0.10;;;4.50;99.90;;;;;;4980405;28;20022;-86
2024/01/27 10:13:54;;;;;;;0.10;0.10;;;4.60;99.90;;;;;;4997247;28;20169;-85
2024/01/27 10:16:20;;;;;;;0.10;0.10;;;;;;;;;;4993285;28;20033;-86
2024/01/27 10:18:46;;;;;;;0.10;0.10;;;;;;;;;;4993112;28;20418;-85
2024/01/27 10:21:19;;;;;;;0.10;0.10;;;4.70;99.90;;;;;;4985210;28;20457;-86
2024/01/27 10:23:45;;;;;;;0.10;0.10;;;;;;;;;;4993221;28;20026;-85
2024/01/27 10:26:11;;;;;;;0.00;0.00;;;;;;;;;;4993740;28;20525;-87
2024/01/27 10:28:38;;;;;;;0.10;0.10;;;;;;;;;;4993907;28;20493;-85
2024/01/27 10:31:13;;;;;;;0.10;0.10;;;4.80;99.90;;;;;;4994581;28;20531;-86
2024/01/27 10:33:39;;;;;;;0.10;0.10;;;;;;;;;;4993725;28;20117;-86
2024/01/27 10:36:05;;;;;;;0.10;0.10;;;;;;;;;;4993080;28;20029;-87
2024/01/27 10:38:40;;;;;;;0.05;0.05;;;5.20;99.90;;;;;;4993729;28;20022;-87
2024/01/27 10:41:12;;;;;;;0.10;0.10;;;5.00;99.90;;;;;;4994285;28;20382;-86
2024/01/27 10:43:38;;;;;;;0.10;0.10;;;5.10;99.90;;;;;;4994947;28;20117;-88
2024/01/27 10:46:06;;;;;;;0.10;0.10;;;5.10;99.90;;;;;;4994802;28;20034;-89
2024/01/27 10:48:35;;;;;;;0.10;0.10;;;5.10;99.90;;;;;;4995371;28;20477;-90
2024/01/27 10:51:06;;;;;;;0.10;0.10;;;5.20;99.90;;;;;;4994763;28;20034;-89
2024/01/27 10:53:35;;;;;;;0.10;0.10;;;5.30;99.90;;;;;;4994649;28;20072;-89
2024/01/27 10:56:01;;;;;;;0.10;0.10;;;;;;;;;;4994281;28;20030;-89
2024/01/27 10:58:29;;;;;;;0.00;0.00;;;5.40;99.90;;;;;;4993839;28;20053;-88
2024/01/27 11:00:56;;;;;;;0.10;0.10;;;5.40;99.90;;;;;;4994490;28;20026;-89
2024/01/27 11:03:23;;;;;;;0.10;0.10;;;5.40;99.90;;;;;;4999435;28;20035;-89
2024/01/27 11:05:50;;;;;;;0.10;0.10;;;5.40;99.90;;;;;;4988378;28;20038;-89
2024/01/27 11:08:16;;;;;;;0.10;0.10;;;;;;;;;;4992421;28;20141;-90
2024/01/27 11:10:43;;;;;;;0.10;0.10;;;;;;;;;;4998104;28;20497;-90
2024/01/27 11:13:09;;;;;;;0.10;0.10;;;5.60;99.90;;;;;;4992954;28;20375;-91
2024/01/27 11:15:35;;;;;;;0.05;0.05;;;;;;;;;;4993024;28;20062;-90
2024/01/27 11:18:03;;;;;;;0.10;0.10;;;;;;;;;;4993133;28;20046;-90
2024/01/27 11:20:31;;;;;;;0.10;0.10;;;5.70;99.90;;;;;;4985367;28;20096;-90
2024/01/27 11:23:08;;;;;;;0.10;0.10;;;5.80;99.90;;;;;;4993090;28;20141;-90
2024/01/27 11:25:34;;;;;;;0.00;0.00;;;;;;;;;;4992838;28;20109;-90
2024/01/27 11:28:15;;;;;;;0.10;0.10;;;5.90;99.90;;;;;;5009351;28;20057;-89
2024/01/27 11:30:48;;;;;;;0.10;0.10;;;5.90;99.90;;;;;;4986739;28;20486;-90
2024/01/27 11:33:14;;;;;;;0.10;0.10;;;5.80;99.90;;;;;;4990739;28;20034;-90
2024/01/27 11:35:39;;;;;;;0.10;0.10;;;;;;;;;;4993242;28;20113;-89
2024/01/27 11:38:05;;;;;;;0.10;0.10;;;;;;;;;;4991530;28;20026;-89
2024/01/27 11:40:32;;;;;;;0.10;0.10;;;6.00;99.90;;;;;;4992255;28;20386;-90
2024/01/27 11:42:58;;;;;;;0.10;0.10;;;6.00;99.90;;;;;;4997669;28;20030;-89
2024/01/27 11:45:24;;;;;;;0.10;0.10;;;;;;;;;;4994128;28;20037;-91
2024/01/27 11:47:51;;;;;;;0.10;0.10;;;;;;;;;;4993351;28;20473;-90
2024/01/27 11:50:20;;;;;;;0.10;0.10;;;6.00;99.90;;;;;;4989680;28;20034;-90
2024/01/27 11:52:46;;;;;;;0.00;0.00;;;;;;;;;;4985845;28;20498;-90
2024/01/27 11:55:12;;;;;;;0.10;0.10;;;;;;;;;;4986684;28;20362;-90
2024/01/27 11:57:38;;;;;;;0.03;0.03;;;;;;;;;;4987981;28;20032;-90
2024/01/27 12:00:04;;;;;;;0.10;0.10;;;6.50;99.90;;;;;;4989116;28;20510;-89
2024/01/27 12:02:30;;;;;;;0.10;0.10;;;;;;;;;;4993138;28;20023;-90
2024/01/27 12:04:56;;;;;;;0.10;0.10;;;;;;;;;;4992802;28;20057;-90
2024/01/27 12:07:22;;;;;;;0.10;0.10;;;;;;;;;;4994479;28;20038;-90
2024/01/27 12:09:51;;;;;;;0.00;0.00;;;6.50;99.90;;;;;;4993889;28;20065;-90
2024/01/27 12:12:17;;;;;;;0.10;0.10;;;;;;;;;;4998149;28;20496;-90
2024/01/27 12:14:50;;;;;;;0.08;0.08;;;6.50;99.90;;;;;;4991371;28;20102;-90
2024/01/27 12:17:17;;;;;;;0.10;0.10;;;;;;;;;;4987711;28;20043;-89
2024/01/27 12:19:49;;;;;;;0.10;0.10;;;6.70;99.90;;;;;;4992555;28;20389;-90
2024/01/27 12:22:27;;;;;;;0.10;0.10;;;6.70;99.90;;;;;;4992892;28;20027;-90
2024/01/27 12:25:13;;;;;;;0.10;0.10;;;6.70;99.90;;;;;;4992572;28;20085;-90
2024/01/27 12:27:39;;;;;;;0.00;0.00;;;6.80;99.90;;;;;;4988943;28;20401;-89
2024/01/27 12:30:06;;;;;;;0.10;0.10;;;6.70;99.90;;;;;;4993151;28;20556;-90
2024/01/27 12:32:32;;;;;;;0.10;0.10;;;;;;;;;;4991797;28;20690;-90
2024/01/27 12:35:01;;;;;;;0.10;0.10;;;;;;;;;;4980454;28;20034;-90
2024/01/27 12:37:27;;;;;;;0.10;0.10;;;;;;;;;;4994402;28;20029;-90
2024/01/27 12:39:53;;;;;;;0.03;0.03;;;;;;;;;;4993250;28;20027;-89
2024/01/27 12:42:19;;;;;;;0.10;0.10;;;6.90;99.90;;;;;;4992441;28;20061;-91
2024/01/27 12:44:45;;;;;;;0.10;0.10;;;;;;;;;;4992620;28;20032;-90
2024/01/27 12:47:11;;;;;;;0.10;0.10;;;;;;;;;;4995874;28;20031;-89
2024/01/27 12:49:37;;;;;;;0.10;0.10;;;;;;;;;;4992844;28;20623;-91
2024/01/27 12:52:03;;;;;;;0.10;0.10;;;;;;;;;;4987269;28;20438;-91
2024/01/27 12:54:29;;;;;;;0.10;0.10;;;;;;;;;;4991295;28;20031;-90
2024/01/27 12:56:56;;;;;;;0.10;0.10;;;7.00;99.90;;;;;;4992942;28;20092;-90
2024/01/27 12:59:23;;;;;;;0.10;0.10;;;;;;;;;;4994124;28;20021;-89
2024/01/27 13:01:49;;;;;;;0.10;0.10;;;;;;;;;;4996614;28;20400;-90
2024/01/27 13:04:15;;;;;;;0.10;0.10;;;;;;;;;;4995796;28;20113;-90
2024/01/27 13:06:41;;;;;;;0.10;0.10;;;;;;;;;;4993114;28;20165;-90
2024/01/27 13:09:07;;;;;;;0.10;0.10;;;7.10;99.90;;;;;;4996029;28;20041;-90
2024/01/27 13:11:33;;;;;;;0.08;0.08;;;;;;;;;;4995721;28;20034;-91
2024/01/27 13:14:02;;;;;;;0.10;0.10;;;7.10;99.90;;;;;;5001557;28;20040;-90
2024/01/27 13:16:28;;;;;;;0.00;0.00;;;;;;;;;;4998034;28;20034;-90
2024/01/27 13:18:54;;;;;;;0.10;0.10;;;;;;;;;;4995393;28;20492;-90
2024/01/27 13:21:20;;;;;;;0.00;0.00;;;;;;;;;;4995399;28;20061;-90
2024/01/27 13:23:46;;;;;;;0.10;0.10;;;;;;;;;;4986612;28;20037;-90
2024/01/27 13:26:11;;;;;;;0.10;0.10;;;;;;;;;;4994536;28;20034;-89
2024/01/27 13:28:37;;;;;;;0.10;0.10;;;;;;;;;;4991713;28;20042;-90
2024/01/27 13:31:04;;;;;;;0.10;0.10;;;;;;;;;;4995750;28;20088;-90
2024/01/27 13:33:30;;;;;;;0.10;0.10;;;;;;;;;;4990115;28;20033;-90
2024/01/27 13:35:57;;;;;;;0.10;0.10;;;;;;;;;;4995122;28;20053;-90
2024/01/27 13:38:23;;;;;;;0.10;0.10;;;;;;;;;;4994916;28;20027;-91
2024/01/27 13:40:49;;;;;;;0.10;0.10;;;;;;;;;;4992521;28;20034;-90
2024/01/27 13:43:15;;;;;;;0.10;0.10;;;;;;;;;;5005162;28;20049;-90
2024/01/27 13:45:40;;;;;;;0.10;0.10;;;7.50;99.90;;;;;;4989828;28;20026;-90
2024/01/27 13:48:07;;;;;;;0.10;0.10;;;7.10;99.90;;;;;;4994489;28;20034;-91
2024/01/27 13:50:33;;;;;;;0.10;0.10;;;;;;;;;;4993349;28;20505;-89
2024/01/27 13:52:59;;;;;;;0.10;0.10;;;;;;;;;;4995458;28;20031;-89
2024/01/27 13:55:25;;;;;;;0.10;0.10;;;7.40;99.90;;;;;;4987226;28;20038;-90
2024/01/27 13:57:51;;;;;;;0.10;0.10;;;;;;;;;;4983223;28;20397;-89
2024/01/27 14:00:17;;;;;;;0.10;0.10;;;7.30;99.90;;;;;;4988196;28;20034;-90
2024/01/27 14:02:43;;;;;;;0.10;0.10;;;7.30;99.90;;;;;;4989108;28;20113;-90
2024/01/27 14:05:09;;;;;;;0.10;0.10;;;;;;;;;;4995613;28;20030;-90
2024/01/27 14:07:35;;;;;;;0.10;0.10;;;;;;;;;;4990751;28;20041;-89
2024/01/27 14:10:01;;;;;;;0.10;0.10;;;7.40;99.90;;;;;;4994585;28;20497;-90
2024/01/27 14:12:28;;;;;;;0.10;0.10;;;;;;;;;;4993777;28;20030;-90
2024/01/27 14:14:54;;;;;;;0.10;0.10;;;;;;;;;;4993968;28;20026;-90
2024/01/27 14:17:20;;;;;;;0.00;0.00;;;;;;;;;;4991530;28;20065;-91
2024/01/27 14:19:47;;;;;;;0.10;0.10;;;;;;;;;;4994483;28;20032;-90